sensor_id;sensor_type;location;lat;lon;timestamp;P1;durP1;ratioP1;P2;durP2;ratioP2
19569;SDS011;9931;51.458;7.256;2022-11-28T00:03:53;32.77;;;3.10;;
19569;SDS011;9931;51.458;7.256;2022-11-28T00:06:18;11.27;;;1.35;;
19569;SDS011;9931;51.458;7.256;2022-11-28T00:08:43;19.45;;;2.10;;
19569;SDS011;9931;51.458;7.256;2022-11-28T00:11:09;3.65;;;0.68;;
19569;SDS011;9931;51.458;7.256;2022-11-28T00:13:35;10.20;;;1.30;;
19569;SDS011;9931;51.458;7.256;2022-11-28T00:16:01;17.88;;;1.95;;
19569;SDS011;9931;51.458;7.256;2022-11-28T00:18:27;1.92;;;0.50;;
19569;SDS011;9931;51.458;7.256;2022-11-28T00:20:59;8.82;;;1.20;;
19569;SDS011;9931;51.458;7.256;2022-11-28T00:23:25;6.75;;;0.90;;
19569;SDS011;9931;51.458;7.256;2022-11-28T00:25:57;7.78;;;1.02;;
19569;SDS011;9931;51.458;7.256;2022-11-28T00:28:22;11.77;;;1.33;;
19569;SDS011;9931;51.458;7.256;2022-11-28T00:30:47;14.17;;;1.60;;
19569;SDS011;9931;51.458;7.256;2022-11-28T00:33:12;14.10;;;1.53;;
19569;SDS011;9931;51.458;7.256;2022-11-28T00:35:37;9.40;;;1.17;;
19569;SDS011;9931;51.458;7.256;2022-11-28T00:38:03;7.43;;;1.03;;
19569;SDS011;9931;51.458;7.256;2022-11-28T00:40:28;7.70;;;1.03;;
19569;SDS011;9931;51.458;7.256;2022-11-28T00:42:53;7.43;;;1.00;;
19569;SDS011;9931;51.458;7.256;2022-11-28T00:45:18;29.93;;;2.93;;
19569;SDS011;9931;51.458;7.256;2022-11-28T00:47:43;23.83;;;2.40;;
19569;SDS011;9931;51.458;7.256;2022-11-28T00:50:10;24.55;;;2.45;;
19569;SDS011;9931;51.458;7.256;2022-11-28T00:52:35;9.50;;;1.23;;
19569;SDS011;9931;51.458;7.256;2022-11-28T00:55:01;16.80;;;1.80;;
19569;SDS011;9931;51.458;7.256;2022-11-28T00:57:26;29.07;;;2.87;;
19569;SDS011;9931;51.458;7.256;2022-11-28T00:59:51;8.13;;;1.03;;
19569;SDS011;9931;51.458;7.256;2022-11-28T01:02:16;18.37;;;1.97;;
19569;SDS011;9931;51.458;7.256;2022-11-28T01:04:41;8.15;;;1.05;;
19569;SDS011;9931;51.458;7.256;2022-11-28T01:07:07;13.52;;;1.58;;
19569;SDS011;9931;51.458;7.256;2022-11-28T01:09:32;20.93;;;2.20;;
19569;SDS011;9931;51.458;7.256;2022-11-28T01:11:57;9.25;;;1.13;;
19569;SDS011;9931;51.458;7.256;2022-11-28T01:14:23;26.73;;;2.63;;
19569;SDS011;9931;51.458;7.256;2022-11-28T01:16:48;41.15;;;3.80;;
19569;SDS011;9931;51.458;7.256;2022-11-28T01:19:13;6.80;;;0.90;;
19569;SDS011;9931;51.458;7.256;2022-11-28T01:21:39;7.63;;;1.02;;
19569;SDS011;9931;51.458;7.256;2022-11-28T01:24:04;9.85;;;1.20;;
19569;SDS011;9931;51.458;7.256;2022-11-28T01:26:30;28.73;;;2.83;;
19569;SDS011;9931;51.458;7.256;2022-11-28T01:28:55;11.07;;;1.38;;
19569;SDS011;9931;51.458;7.256;2022-11-28T01:31:22;7.40;;;1.00;;
19569;SDS011;9931;51.458;7.256;2022-11-28T01:33:48;8.48;;;1.17;;
19569;SDS011;9931;51.458;7.256;2022-11-28T01:36:13;14.82;;;1.60;;
19569;SDS011;9931;51.458;7.256;2022-11-28T01:38:39;16.60;;;1.80;;
19569;SDS011;9931;51.458;7.256;2022-11-28T01:41:04;7.10;;;0.98;;
19569;SDS011;9931;51.458;7.256;2022-11-28T01:43:30;9.90;;;1.33;;
19569;SDS011;9931;51.458;7.256;2022-11-28T01:45:55;23.25;;;2.38;;
19569;SDS011;9931;51.458;7.256;2022-11-28T01:48:22;15.05;;;1.52;;
19569;SDS011;9931;51.458;7.256;2022-11-28T01:50:49;7.40;;;0.95;;
19569;SDS011;9931;51.458;7.256;2022-11-28T01:53:17;56.00;;;4.68;;
19569;SDS011;9931;51.458;7.256;2022-11-28T01:55:46;9.35;;;1.15;;
19569;SDS011;9931;51.458;7.256;2022-11-28T01:58:12;8.43;;;1.17;;
19569;SDS011;9931;51.458;7.256;2022-11-28T02:00:37;18.15;;;1.85;;
19569;SDS011;9931;51.458;7.256;2022-11-28T02:03:07;9.07;;;1.10;;
19569;SDS011;9931;51.458;7.256;2022-11-28T02:05:33;22.63;;;2.30;;
19569;SDS011;9931;51.458;7.256;2022-11-28T02:07:59;9.50;;;1.20;;
19569;SDS011;9931;51.458;7.256;2022-11-28T02:10:28;9.98;;;1.25;;
19569;SDS011;9931;51.458;7.256;2022-11-28T02:13:03;17.83;;;1.88;;
19569;SDS011;9931;51.458;7.256;2022-11-28T02:23:50;36.42;;;3.50;;
19569;SDS011;9931;51.458;7.256;2022-11-28T02:28:51;11.20;;;1.30;;
19569;SDS011;9931;51.458;7.256;2022-11-28T02:33:52;17.50;;;1.90;;
19569;SDS011;9931;51.458;7.256;2022-11-28T02:41:32;11.27;;;1.42;;
19569;SDS011;9931;51.458;7.256;2022-11-28T02:44:11;25.30;;;2.53;;
19569;SDS011;9931;51.458;7.256;2022-11-28T02:49:22;26.70;;;2.70;;
19569;SDS011;9931;51.458;7.256;2022-11-28T02:51:52;8.35;;;1.13;;
19569;SDS011;9931;51.458;7.256;2022-11-28T02:54:19;24.52;;;2.50;;
19569;SDS011;9931;51.458;7.256;2022-11-28T02:56:46;31.13;;;2.83;;
19569;SDS011;9931;51.458;7.256;2022-11-28T02:59:28;1.98;;;0.55;;
19569;SDS011;9931;51.458;7.256;2022-11-28T03:01:55;6.93;;;1.00;;
19569;SDS011;9931;51.458;7.256;2022-11-28T03:07:10;13.13;;;1.45;;
19569;SDS011;9931;51.458;7.256;2022-11-28T03:09:44;9.15;;;1.08;;
19569;SDS011;9931;51.458;7.256;2022-11-28T03:24:51;8.70;;;1.13;;
19569;SDS011;9931;51.458;7.256;2022-11-28T03:29:53;8.32;;;1.05;;
19569;SDS011;9931;51.458;7.256;2022-11-28T03:32:23;9.20;;;1.10;;
19569;SDS011;9931;51.458;7.256;2022-11-28T03:34:51;7.45;;;0.90;;
19569;SDS011;9931;51.458;7.256;2022-11-28T03:37:22;23.63;;;2.28;;
19569;SDS011;9931;51.458;7.256;2022-11-28T03:39:50;7.57;;;1.00;;
19569;SDS011;9931;51.458;7.256;2022-11-28T03:42:22;12.40;;;1.45;;
19569;SDS011;9931;51.458;7.256;2022-11-28T03:44:51;11.30;;;1.35;;
19569;SDS011;9931;51.458;7.256;2022-11-28T03:47:18;7.43;;;1.00;;
19569;SDS011;9931;51.458;7.256;2022-11-28T03:49:48;13.50;;;1.55;;
19569;SDS011;9931;51.458;7.256;2022-11-28T03:52:15;23.15;;;2.35;;
19569;SDS011;9931;51.458;7.256;2022-11-28T03:54:48;15.90;;;1.70;;
19569;SDS011;9931;51.458;7.256;2022-11-28T03:57:20;0.30;;;0.30;;
19569;SDS011;9931;51.458;7.256;2022-11-28T03:59:46;2.72;;;0.55;;
19569;SDS011;9931;51.458;7.256;2022-11-28T04:08:11;1.75;;;0.43;;
19569;SDS011;9931;51.458;7.256;2022-11-28T04:12:34;8.73;;;1.15;;
19569;SDS011;9931;51.458;7.256;2022-11-28T04:20:34;11.25;;;1.42;;
19569;SDS011;9931;51.458;7.256;2022-11-28T04:23:01;6.22;;;0.93;;
19569;SDS011;9931;51.458;7.256;2022-11-28T04:25:30;12.75;;;1.58;;
19569;SDS011;9931;51.458;7.256;2022-11-28T04:27:59;6.70;;;1.02;;
19569;SDS011;9931;51.458;7.256;2022-11-28T04:30:25;11.75;;;1.48;;
19569;SDS011;9931;51.458;7.256;2022-11-28T04:32:51;19.98;;;2.10;;
19569;SDS011;9931;51.458;7.256;2022-11-28T04:35:40;19.45;;;2.15;;
19569;SDS011;9931;51.458;7.256;2022-11-28T04:38:03;23.10;;;2.42;;
19569;SDS011;9931;51.458;7.256;2022-11-28T04:40:31;16.30;;;1.77;;
19569;SDS011;9931;51.458;7.256;2022-11-28T04:43:00;7.03;;;1.00;;
19569;SDS011;9931;51.458;7.256;2022-11-28T04:45:30;21.08;;;2.30;;
19569;SDS011;9931;51.458;7.256;2022-11-28T04:47:56;14.32;;;1.67;;
19569;SDS011;9931;51.458;7.256;2022-11-28T04:50:22;9.55;;;1.20;;
19569;SDS011;9931;51.458;7.256;2022-11-28T04:52:53;39.13;;;3.65;;
19569;SDS011;9931;51.458;7.256;2022-11-28T04:55:31;11.00;;;1.30;;
19569;SDS011;9931;51.458;7.256;2022-11-28T04:58:04;8.25;;;1.17;;
19569;SDS011;9931;51.458;7.256;2022-11-28T05:00:32;11.35;;;1.50;;
19569;SDS011;9931;51.458;7.256;2022-11-28T05:02:57;7.50;;;1.00;;
19569;SDS011;9931;51.458;7.256;2022-11-28T05:05:24;3.37;;;0.70;;
19569;SDS011;9931;51.458;7.256;2022-11-28T05:07:50;12.75;;;1.45;;
19569;SDS011;9931;51.458;7.256;2022-11-28T05:10:16;7.03;;;1.05;;
19569;SDS011;9931;51.458;7.256;2022-11-28T05:12:41;12.35;;;1.58;;
19569;SDS011;9931;51.458;7.256;2022-11-28T05:15:07;19.25;;;2.10;;
19569;SDS011;9931;51.458;7.256;2022-11-28T05:17:32;17.38;;;1.92;;
19569;SDS011;9931;51.458;7.256;2022-11-28T05:19:57;21.35;;;2.25;;
19569;SDS011;9931;51.458;7.256;2022-11-28T05:22:22;8.70;;;1.17;;
19569;SDS011;9931;51.458;7.256;2022-11-28T05:24:48;15.30;;;1.73;;
19569;SDS011;9931;51.458;7.256;2022-11-28T05:27:13;8.93;;;1.02;;
19569;SDS011;9931;51.458;7.256;2022-11-28T05:29:38;10.15;;;1.30;;
19569;SDS011;9931;51.458;7.256;2022-11-28T05:32:07;13.35;;;1.60;;
19569;SDS011;9931;51.458;7.256;2022-11-28T05:34:32;22.83;;;2.35;;
19569;SDS011;9931;51.458;7.256;2022-11-28T05:36:58;8.67;;;1.17;;
19569;SDS011;9931;51.458;7.256;2022-11-28T05:39:23;18.90;;;2.05;;
19569;SDS011;9931;51.458;7.256;2022-11-28T05:41:48;12.75;;;1.48;;
19569;SDS011;9931;51.458;7.256;2022-11-28T05:44:13;7.37;;;1.10;;
19569;SDS011;9931;51.458;7.256;2022-11-28T05:46:38;30.23;;;2.93;;
19569;SDS011;9931;51.458;7.256;2022-11-28T05:49:04;21.15;;;2.13;;
19569;SDS011;9931;51.458;7.256;2022-11-28T05:51:29;17.65;;;1.98;;
19569;SDS011;9931;51.458;7.256;2022-11-28T05:53:54;58.13;;;5.13;;
19569;SDS011;9931;51.458;7.256;2022-11-28T05:56:19;14.83;;;1.70;;
19569;SDS011;9931;51.458;7.256;2022-11-28T05:58:47;3.25;;;0.63;;
19569;SDS011;9931;51.458;7.256;2022-11-28T06:01:16;7.15;;;1.00;;
19569;SDS011;9931;51.458;7.256;2022-11-28T06:03:42;6.88;;;0.95;;
19569;SDS011;9931;51.458;7.256;2022-11-28T06:06:14;7.93;;;1.10;;
19569;SDS011;9931;51.458;7.256;2022-11-28T06:08:40;13.63;;;1.60;;
19569;SDS011;9931;51.458;7.256;2022-11-28T06:11:06;7.05;;;1.00;;
19569;SDS011;9931;51.458;7.256;2022-11-28T06:13:31;5.57;;;0.88;;
19569;SDS011;9931;51.458;7.256;2022-11-28T06:15:56;8.82;;;1.17;;
19569;SDS011;9931;51.458;7.256;2022-11-28T06:18:21;69.63;;;6.33;;
19569;SDS011;9931;51.458;7.256;2022-11-28T06:20:47;19.40;;;2.10;;
19569;SDS011;9931;51.458;7.256;2022-11-28T06:23:12;7.00;;;1.00;;
19569;SDS011;9931;51.458;7.256;2022-11-28T06:25:37;8.90;;;1.13;;
19569;SDS011;9931;51.458;7.256;2022-11-28T06:28:02;43.90;;;4.13;;
19569;SDS011;9931;51.458;7.256;2022-11-28T06:30:27;10.68;;;1.33;;
19569;SDS011;9931;51.458;7.256;2022-11-28T06:32:52;6.40;;;0.93;;
19569;SDS011;9931;51.458;7.256;2022-11-28T06:35:18;30.03;;;3.07;;
19569;SDS011;9931;51.458;7.256;2022-11-28T06:37:43;6.65;;;0.98;;
19569;SDS011;9931;51.458;7.256;2022-11-28T06:40:08;8.87;;;1.10;;
19569;SDS011;9931;51.458;7.256;2022-11-28T06:42:34;8.43;;;1.13;;
19569;SDS011;9931;51.458;7.256;2022-11-28T06:45:00;43.85;;;4.13;;
19569;SDS011;9931;51.458;7.256;2022-11-28T06:47:26;8.57;;;1.17;;
19569;SDS011;9931;51.458;7.256;2022-11-28T06:49:51;8.63;;;1.17;;
19569;SDS011;9931;51.458;7.256;2022-11-28T06:52:16;7.47;;;1.10;;
19569;SDS011;9931;51.458;7.256;2022-11-28T06:54:41;12.40;;;1.50;;
19569;SDS011;9931;51.458;7.256;2022-11-28T06:57:08;11.45;;;1.45;;
19569;SDS011;9931;51.458;7.256;2022-11-28T06:59:33;7.72;;;1.20;;
19569;SDS011;9931;51.458;7.256;2022-11-28T07:01:58;6.47;;;1.00;;
19569;SDS011;9931;51.458;7.256;2022-11-28T07:04:26;6.93;;;1.00;;
19569;SDS011;9931;51.458;7.256;2022-11-28T07:06:51;16.15;;;1.80;;
19569;SDS011;9931;51.458;7.256;2022-11-28T07:09:17;9.33;;;1.20;;
19569;SDS011;9931;51.458;7.256;2022-11-28T07:11:42;23.57;;;2.50;;
19569;SDS011;9931;51.458;7.256;2022-11-28T07:14:07;7.55;;;1.10;;
19569;SDS011;9931;51.458;7.256;2022-11-28T07:16:34;16.23;;;1.80;;
19569;SDS011;9931;51.458;7.256;2022-11-28T07:18:59;9.35;;;1.25;;
19569;SDS011;9931;51.458;7.256;2022-11-28T07:21:25;36.67;;;3.47;;
19569;SDS011;9931;51.458;7.256;2022-11-28T07:23:50;8.15;;;1.10;;
19569;SDS011;9931;51.458;7.256;2022-11-28T07:26:17;9.40;;;1.23;;
19569;SDS011;9931;51.458;7.256;2022-11-28T07:28:42;48.30;;;4.35;;
19569;SDS011;9931;51.458;7.256;2022-11-28T07:31:09;14.60;;;1.70;;
19569;SDS011;9931;51.458;7.256;2022-11-28T07:33:35;8.32;;;1.20;;
19569;SDS011;9931;51.458;7.256;2022-11-28T07:36:01;42.17;;;3.95;;
19569;SDS011;9931;51.458;7.256;2022-11-28T07:38:27;6.55;;;0.90;;
19569;SDS011;9931;51.458;7.256;2022-11-28T07:40:52;14.13;;;1.60;;
19569;SDS011;9931;51.458;7.256;2022-11-28T07:43:17;7.07;;;1.03;;
19569;SDS011;9931;51.458;7.256;2022-11-28T07:45:42;6.90;;;1.00;;
19569;SDS011;9931;51.458;7.256;2022-11-28T07:48:07;16.02;;;1.70;;
19569;SDS011;9931;51.458;7.256;2022-11-28T07:50:34;13.45;;;1.55;;
19569;SDS011;9931;51.458;7.256;2022-11-28T07:52:59;9.82;;;1.30;;
19569;SDS011;9931;51.458;7.256;2022-11-28T07:55:24;13.63;;;1.58;;
19569;SDS011;9931;51.458;7.256;2022-11-28T07:57:49;6.37;;;0.93;;
19569;SDS011;9931;51.458;7.256;2022-11-28T08:00:15;11.03;;;1.30;;
19569;SDS011;9931;51.458;7.256;2022-11-28T08:02:40;8.77;;;1.10;;
19569;SDS011;9931;51.458;7.256;2022-11-28T08:05:06;22.10;;;2.28;;
19569;SDS011;9931;51.458;7.256;2022-11-28T08:07:31;17.45;;;1.95;;
19569;SDS011;9931;51.458;7.256;2022-11-28T08:09:56;10.77;;;1.40;;
19569;SDS011;9931;51.458;7.256;2022-11-28T08:12:21;9.98;;;1.35;;
19569;SDS011;9931;51.458;7.256;2022-11-28T08:14:47;7.95;;;1.15;;
19569;SDS011;9931;51.458;7.256;2022-11-28T08:17:12;16.20;;;1.80;;
19569;SDS011;9931;51.458;7.256;2022-11-28T08:19:37;61.85;;;4.88;;
19569;SDS011;9931;51.458;7.256;2022-11-28T08:22:02;12.53;;;1.33;;
19569;SDS011;9931;51.458;7.256;2022-11-28T08:24:27;19.97;;;1.87;;
19569;SDS011;9931;51.458;7.256;2022-11-28T08:26:53;42.47;;;3.30;;
19569;SDS011;9931;51.458;7.256;2022-11-28T08:29:18;125.20;;;45.77;;
19569;SDS011;9931;51.458;7.256;2022-11-28T08:31:43;64.60;;;41.03;;
19569;SDS011;9931;51.458;7.256;2022-11-28T08:34:08;80.47;;;54.22;;
19569;SDS011;9931;51.458;7.256;2022-11-28T08:36:34;165.80;;;71.57;;
19569;SDS011;9931;51.458;7.256;2022-11-28T08:39:00;112.13;;;57.90;;
19569;SDS011;9931;51.458;7.256;2022-11-28T08:41:25;36.38;;;2.90;;
19569;SDS011;9931;51.458;7.256;2022-11-28T08:43:51;12.07;;;1.25;;
19569;SDS011;9931;51.458;7.256;2022-11-28T08:46:18;11.80;;;1.27;;
19569;SDS011;9931;51.458;7.256;2022-11-28T08:48:44;11.90;;;1.30;;
19569;SDS011;9931;51.458;7.256;2022-11-28T08:51:13;13.77;;;1.42;;
19569;SDS011;9931;51.458;7.256;2022-11-28T08:53:39;10.25;;;1.00;;
19569;SDS011;9931;51.458;7.256;2022-11-28T08:56:05;7.57;;;0.93;;
19569;SDS011;9931;51.458;7.256;2022-11-28T08:58:30;12.10;;;1.33;;
19569;SDS011;9931;51.458;7.256;2022-11-28T09:00:56;19.95;;;1.95;;
19569;SDS011;9931;51.458;7.256;2022-11-28T09:03:21;69.53;;;50.90;;
19569;SDS011;9931;51.458;7.256;2022-11-28T09:05:46;58.17;;;48.08;;
19569;SDS011;9931;51.458;7.256;2022-11-28T09:08:14;138.02;;;61.90;;
19569;SDS011;9931;51.458;7.256;2022-11-28T09:10:40;234.43;;;80.60;;
19569;SDS011;9931;51.458;7.256;2022-11-28T09:13:05;36.50;;;17.23;;
19569;SDS011;9931;51.458;7.256;2022-11-28T09:15:31;159.38;;;56.05;;
19569;SDS011;9931;51.458;7.256;2022-11-28T09:17:56;144.82;;;60.72;;
19569;SDS011;9931;51.458;7.256;2022-11-28T09:20:21;177.13;;;90.65;;
19569;SDS011;9931;51.458;7.256;2022-11-28T09:22:46;70.40;;;42.47;;
19569;SDS011;9931;51.458;7.256;2022-11-28T09:25:15;59.70;;;12.68;;
19569;SDS011;9931;51.458;7.256;2022-11-28T09:27:40;42.67;;;18.48;;
19569;SDS011;9931;51.458;7.256;2022-11-28T09:30:06;39.72;;;11.38;;
19569;SDS011;9931;51.458;7.256;2022-11-28T09:32:31;12.55;;;1.38;;
19569;SDS011;9931;51.458;7.256;2022-11-28T09:34:57;21.08;;;1.85;;
19569;SDS011;9931;51.458;7.256;2022-11-28T09:37:22;13.40;;;1.33;;
19569;SDS011;9931;51.458;7.256;2022-11-28T09:39:47;19.77;;;2.03;;
19569;SDS011;9931;51.458;7.256;2022-11-28T09:42:20;14.50;;;1.52;;
19569;SDS011;9931;51.458;7.256;2022-11-28T09:44:48;26.38;;;2.35;;
19569;SDS011;9931;51.458;7.256;2022-11-28T09:47:18;1.13;;;0.40;;
19569;SDS011;9931;51.458;7.256;2022-11-28T09:49:45;12.48;;;1.30;;
19569;SDS011;9931;51.458;7.256;2022-11-28T09:52:25;11.25;;;1.13;;
19569;SDS011;9931;51.458;7.256;2022-11-28T09:54:57;11.90;;;1.35;;
19569;SDS011;9931;51.458;7.256;2022-11-28T09:57:46;11.73;;;1.25;;
19569;SDS011;9931;51.458;7.256;2022-11-28T10:00:10;12.13;;;1.40;;
19569;SDS011;9931;51.458;7.256;2022-11-28T10:05:23;25.48;;;2.15;;
19569;SDS011;9931;51.458;7.256;2022-11-28T10:07:57;17.63;;;1.70;;
19569;SDS011;9931;51.458;7.256;2022-11-28T10:10:49;15.38;;;1.52;;
19569;SDS011;9931;51.458;7.256;2022-11-28T10:21:02;18.42;;;1.75;;
19569;SDS011;9931;51.458;7.256;2022-11-28T10:23:36;14.57;;;1.45;;
19569;SDS011;9931;51.458;7.256;2022-11-28T10:26:04;9.13;;;1.05;;
19569;SDS011;9931;51.458;7.256;2022-11-28T10:28:33;16.17;;;1.50;;
19569;SDS011;9931;51.458;7.256;2022-11-28T10:33:43;19.35;;;1.80;;
19569;SDS011;9931;51.458;7.256;2022-11-28T10:36:15;2.53;;;0.40;;
19569;SDS011;9931;51.458;7.256;2022-11-28T10:38:44;11.13;;;1.27;;
19569;SDS011;9931;51.458;7.256;2022-11-28T10:41:52;12.63;;;1.33;;
19569;SDS011;9931;51.458;7.256;2022-11-28T10:43:59;13.95;;;1.48;;
19569;SDS011;9931;51.458;7.256;2022-11-28T10:46:33;20.17;;;1.80;;
19569;SDS011;9931;51.458;7.256;2022-11-28T10:56:41;32.58;;;2.60;;
19569;SDS011;9931;51.458;7.256;2022-11-28T11:01:36;24.40;;;2.13;;
19569;SDS011;9931;51.458;7.256;2022-11-28T11:04:01;16.42;;;1.52;;
19569;SDS011;9931;51.458;7.256;2022-11-28T11:06:27;23.92;;;2.20;;
19569;SDS011;9931;51.458;7.256;2022-11-28T11:08:52;44.80;;;3.47;;
19569;SDS011;9931;51.458;7.256;2022-11-28T13:09:33;2.30;;;1.23;;
19569;SDS011;9931;51.458;7.256;2022-11-28T13:14:36;6.20;;;1.92;;
19569;SDS011;9931;51.458;7.256;2022-11-28T13:17:15;4.45;;;1.48;;
19569;SDS011;9931;51.458;7.256;2022-11-28T13:19:58;2.25;;;0.95;;
19569;SDS011;9931;51.458;7.256;2022-11-28T13:30:21;1.98;;;0.82;;
19569;SDS011;9931;51.458;7.256;2022-11-28T13:32:49;1.95;;;0.93;;
19569;SDS011;9931;51.458;7.256;2022-11-28T13:35:16;2.50;;;1.00;;
19569;SDS011;9931;51.458;7.256;2022-11-28T13:45:21;7.32;;;2.35;;
19569;SDS011;9931;51.458;7.256;2022-11-28T13:47:47;2.30;;;0.98;;
19569;SDS011;9931;51.458;7.256;2022-11-28T13:53:00;3.00;;;1.33;;
19569;SDS011;9931;51.458;7.256;2022-11-28T14:01:00;0.70;;;0.50;;
19569;SDS011;9931;51.458;7.256;2022-11-28T14:03:26;1.58;;;0.90;;
19569;SDS011;9931;51.458;7.256;2022-11-28T14:05:55;1.30;;;0.80;;
19569;SDS011;9931;51.458;7.256;2022-11-28T14:08:24;3.33;;;1.40;;
19569;SDS011;9931;51.458;7.256;2022-11-28T14:11:10;5.15;;;1.90;;
19569;SDS011;9931;51.458;7.256;2022-11-28T14:21:38;3.05;;;1.27;;
19569;SDS011;9931;51.458;7.256;2022-11-28T14:26:38;6.38;;;1.85;;
19569;SDS011;9931;51.458;7.256;2022-11-28T14:29:05;1.38;;;0.80;;
19569;SDS011;9931;51.458;7.256;2022-11-28T14:31:32;3.35;;;1.25;;
19569;SDS011;9931;51.458;7.256;2022-11-28T14:33:59;3.78;;;1.40;;
19569;SDS011;9931;51.458;7.256;2022-11-28T14:36:28;1.90;;;0.93;;
19569;SDS011;9931;51.458;7.256;2022-11-28T14:41:31;2.67;;;1.05;;
19569;SDS011;9931;51.458;7.256;2022-11-28T14:47:03;9.43;;;2.65;;
19569;SDS011;9931;51.458;7.256;2022-11-28T14:49:25;2.67;;;1.10;;
19569;SDS011;9931;51.458;7.256;2022-11-28T14:56:51;5.45;;;1.80;;
19569;SDS011;9931;51.458;7.256;2022-11-28T14:59:17;2.80;;;1.10;;
